Time;durP1;ratioP1;P1;durP2;ratioP2;P2;SDS_P1;SDS_P2;PMS_P1;PMS_P2;Temp;Humidity;BMP_temperature;BMP_pressure;BME280_temperature;BME280_humidity;BME280_pressure;Samples;Min_cycle;Max_cycle;Signal;HPM_P1;HPM_P2
2022/07/05 00:02:07;;;;;;;;;17.00;15.80;;;;;29.07;34.20;99172.56;5089173;28;9959;-74
2022/07/05 00:04:36;;;;;;;;;18.60;17.20;;;;;29.09;34.17;99166.09;5088496;28;8936;-74
2022/07/05 00:07:21;;;;;;;;;17.20;17.20;;;;;29.12;33.94;99171.19;5071177;28;8966;-75
2022/07/05 00:09:51;;;;;;;;;17.40;15.80;;;;;29.12;34.55;99165.84;5088320;28;8853;-73
2022/07/05 00:12:22;;;;;;;;;16.40;15.20;;;;;29.11;33.65;99164.16;5090216;28;8901;-74
2022/07/05 00:14:53;;;;;;;;;17.50;17.00;;;;;28.88;34.12;99162.50;5089400;28;8847;-72
2022/07/05 00:17:21;;;;;;;;;16.60;16.40;;;;;28.84;34.66;99159.22;5090835;28;8831;-74
2022/07/05 00:19:50;;;;;;;;;18.25;18.00;;;;;28.77;34.44;99168.75;5105106;28;8864;-73
2022/07/05 00:22:18;;;;;;;;;22.60;19.60;;;;;28.67;34.77;99160.59;5090957;28;8940;-74
2022/07/05 00:24:47;;;;;;;;;18.80;18.80;;;;;28.57;34.16;99163.19;5088262;28;9593;-75
2022/07/05 00:27:15;;;;;;;;;17.00;16.60;;;;;28.48;34.14;99168.44;5090534;28;8855;-72
2022/07/05 00:29:44;;;;;;;;;16.00;15.20;;;;;28.45;33.83;99166.00;5089182;28;8831;-73
2022/07/05 00:32:14;;;;;;;;;12.80;12.00;;;;;28.39;33.62;99157.47;5090474;28;8952;-73
2022/07/05 00:34:43;;;;;;;;;17.00;16.00;;;;;28.34;33.77;99153.47;5071546;28;8859;-73
2022/07/05 00:37:12;;;;;;;;;14.40;14.40;;;;;28.27;33.93;99150.41;5089036;28;8839;-76
2022/07/05 00:39:42;;;;;;;;;17.60;15.60;;;;;28.26;33.38;99151.41;5089084;28;8840;-74
2022/07/05 00:42:11;;;;;;;;;11.40;11.40;;;;;28.30;33.24;99144.81;5071180;28;8847;-74
2022/07/05 00:44:41;;;;;;;;;15.00;15.00;;;;;28.36;32.31;99155.03;5088942;28;8906;-74
2022/07/05 00:47:14;;;;;;;;;13.20;12.80;;;;;28.33;32.54;99151.75;5089010;28;8840;-73
2022/07/05 00:49:44;;;;;;;;;14.80;14.80;;;;;28.43;32.90;99149.16;5089114;28;8855;-75
2022/07/05 00:52:13;;;;;;;;;10.00;9.20;;;;;28.50;32.81;99145.00;5090157;28;9672;-73
2022/07/05 00:54:47;;;;;;;;;15.20;13.40;;;;;28.55;32.79;99142.84;5089999;28;8831;-73
2022/07/05 00:57:17;;;;;;;;;16.00;15.80;;;;;28.60;32.90;99145.13;5089814;28;8843;-74
2022/07/05 00:59:45;;;;;;;;;15.20;15.20;;;;;28.62;32.69;99144.06;5088840;28;8875;-73
2022/07/05 01:02:15;;;;;;;;;15.60;14.20;;;;;28.61;31.75;99146.88;5088725;28;8959;-74
2022/07/05 01:04:49;;;;;;;;;13.40;13.40;;;;;28.65;31.81;99142.94;5088419;28;8859;-73
2022/07/05 01:07:20;;;;;;;;;14.40;13.40;;;;;28.66;32.13;99140.13;5071147;28;8855;-73
2022/07/05 01:09:49;;;;;;;;;11.60;11.40;;;;;28.71;32.40;99134.38;5089808;28;8847;-76
2022/07/05 01:12:19;;;;;;;;;15.40;14.40;;;;;28.70;32.58;99135.38;5088557;28;8851;-74
2022/07/05 01:14:48;;;;;;;;;16.00;16.00;;;;;28.68;33.12;99129.28;5088403;28;8844;-74
2022/07/05 01:17:18;;;;;;;;;17.60;16.20;;;;;28.68;33.50;99131.97;5088265;28;8844;-73
2022/07/05 01:19:47;;;;;;;;;12.40;12.40;;;;;28.67;33.42;99130.25;5088173;28;8961;-74
2022/07/05 01:22:19;;;;;;;;;15.20;15.00;;;;;28.59;33.83;99130.88;5089775;28;8868;-74
2022/07/05 01:24:51;;;;;;;;;17.40;17.20;;;;;28.42;34.21;99134.91;5088403;28;8832;-74
2022/07/05 01:27:20;;;;;;;;;14.60;14.60;;;;;28.43;34.74;99130.38;5037716;28;9639;-72
2022/07/05 01:29:49;;;;;;;;;17.75;17.75;;;;;28.42;34.90;99134.91;5088059;28;8839;-73
2022/07/05 01:32:18;;;;;;;;;18.40;17.80;;;;;28.37;35.45;99140.66;5086963;28;8959;-73
2022/07/05 01:34:48;;;;;;;;;18.20;18.20;;;;;28.27;35.95;99130.78;5071296;28;8874;-73
2022/07/05 01:37:17;;;;;;;;;18.20;16.60;;;;;28.19;35.91;99132.25;5049391;28;8845;-73
2022/07/05 01:39:47;;;;;;;;;17.60;17.60;;;;;28.28;35.66;99129.81;5066640;28;8962;-74
2022/07/05 01:42:17;;;;;;;;;18.20;18.20;;;;;28.33;35.41;99133.81;5066898;28;8976;-73
2022/07/05 01:44:46;;;;;;;;;13.00;13.00;;;;;28.37;35.35;99131.75;5066615;28;8858;-74
2022/07/05 01:47:17;;;;;;;;;16.00;16.00;;;;;28.41;34.87;99126.97;5049568;28;8890;-73
2022/07/05 01:49:49;;;;;;;;;20.80;18.80;;;;;28.44;35.15;99127.59;5066289;28;8898;-74
2022/07/05 01:52:22;;;;;;;;;17.40;17.40;;;;;28.44;34.81;99119.53;5049600;28;8860;-73
2022/07/05 01:54:51;;;;;;;;;16.00;16.00;;;;;28.46;35.01;99128.31;5066323;28;8990;-74
2022/07/05 01:57:21;;;;;;;;;14.80;14.80;;;;;28.44;35.08;99124.91;5066468;28;8844;-72
2022/07/05 01:59:49;;;;;;;;;17.60;16.00;;;;;28.44;35.22;99129.44;5049288;28;8844;-73
2022/07/05 02:02:19;;;;;;;;;18.00;18.00;;;;;28.46;35.43;99131.00;5049374;28;8982;-73
2022/07/05 02:04:48;;;;;;;;;19.00;17.60;;;;;28.49;35.27;99132.59;5066256;28;8847;-75
2022/07/05 02:07:18;;;;;;;;;15.60;15.60;;;;;28.53;35.77;99131.41;5049816;28;8891;-73
2022/07/05 02:09:47;;;;;;;;;16.60;16.60;;;;;28.54;35.87;99138.44;5087587;28;8944;-73
2022/07/05 02:12:16;;;;;;;;;16.20;16.00;;;;;28.54;35.37;99133.94;5087316;28;8844;-73
2022/07/05 02:14:46;;;;;;;;;18.40;17.20;;;;;28.54;35.76;99138.44;5087699;28;8851;-72
2022/07/05 02:17:18;;;;;;;;;19.80;19.00;;;;;28.49;35.81;99128.06;5054874;28;8890;-74
2022/07/05 02:19:52;;;;;;;;;18.80;18.80;;;;;28.48;36.84;99141.59;5087418;28;8844;-75
2022/07/05 02:22:21;;;;;;;;;16.80;16.40;;;;;28.44;37.00;99138.31;5070522;28;8824;-72
2022/07/05 02:24:50;;;;;;;;;20.50;19.25;;;;;28.30;37.51;99144.81;5087300;28;8866;-74
2022/07/05 02:27:26;;;;;;;;;15.80;15.80;;;;;28.22;37.43;99139.19;5087868;28;9517;-75
2022/07/05 02:29:57;;;;;;;;;16.60;15.60;;;;;28.21;37.56;99142.03;5070555;28;8998;-73
2022/07/05 02:32:36;;;;;;;;;21.20;20.40;;;;;28.19;37.33;99145.66;5087098;28;8916;-74
2022/07/05 02:35:07;;;;;;;;;19.60;17.80;;;;;28.08;37.23;99147.50;5088446;28;8844;-72
2022/07/05 02:37:36;;;;;;;;;18.20;16.60;;;;;28.04;36.85;99146.06;5091288;28;9582;-75
2022/07/05 02:40:08;;;;;;;;;22.40;22.20;;;;;28.05;36.67;99147.75;5091492;28;8969;-73
2022/07/05 02:42:40;;;;;;;;;18.40;16.20;;;;;28.01;36.22;99155.16;5110431;28;8883;-74
2022/07/05 02:45:13;;;;;;;;;21.20;19.40;;;;;27.78;38.43;99160.47;5060981;28;8835;-74
2022/07/05 02:47:43;;;;;;;;;22.00;21.00;;;;;27.71;38.54;99170.00;5093234;28;8970;-74
2022/07/05 02:50:12;;;;;;;;;19.60;19.60;;;;;27.71;38.44;99167.31;5093328;28;8848;-73
2022/07/05 02:52:45;;;;;;;;;18.00;18.00;;;;;27.56;38.99;99158.63;5093306;28;9613;-72
2022/07/05 02:55:16;;;;;;;;;17.60;15.80;;;;;27.57;39.09;99159.47;5093095;28;9037;-73
2022/07/05 02:57:45;;;;;;;;;21.40;20.80;;;;;27.36;38.76;99170.03;5093200;28;8931;-74
2022/07/05 03:00:18;;;;;;;;;19.75;19.75;;;;;27.30;38.88;99171.34;5109893;28;8866;-72
2022/07/05 03:02:48;;;;;;;;;19.40;17.60;;;;;27.39;39.18;99167.09;5109974;28;8846;-73
2022/07/05 03:05:18;;;;;;;;;24.80;22.60;;;;;27.49;38.93;99164.59;5092874;28;8987;-77
2022/07/05 03:07:55;;;;;;;;;31.00;30.00;;;;;27.56;39.25;99165.78;5075902;28;8862;-73
2022/07/05 03:10:26;;;;;;;;;25.75;24.25;;;;;27.63;39.47;99167.03;5092694;28;8850;-73
2022/07/05 03:12:56;;;;;;;;;20.00;19.40;;;;;27.67;39.17;99160.47;5075637;28;8854;-73
2022/07/05 03:15:27;;;;;;;;;20.60;19.00;;;;;27.68;39.38;99161.34;5092754;28;8862;-72
2022/07/05 03:17:55;;;;;;;;;18.00;18.00;;;;;27.73;39.31;99159.13;5079031;28;9675;-72
2022/07/05 03:20:26;;;;;;;;;23.20;19.80;;;;;27.74;39.26;99164.38;5096053;28;9041;-73
2022/07/05 03:22:56;;;;;;;;;16.60;16.60;;;;;27.78;39.07;99165.00;5092663;28;8835;-73
2022/07/05 03:25:32;;;;;;;;;19.80;18.00;;;;;27.81;38.94;99162.94;5092443;28;8828;-73
2022/07/05 03:28:03;;;;;;;;;16.00;14.80;;;;;27.86;38.95;99153.66;5043936;28;8882;-74
2022/07/05 03:30:33;;;;;;;;;21.20;20.80;;;;;27.91;39.00;99164.94;5092470;28;8866;-73
2022/07/05 03:33:01;;;;;;;;;21.80;21.00;;;;;27.92;39.13;99162.13;5092672;28;8836;-73
2022/07/05 03:35:32;;;;;;;;;22.20;22.20;;;;;27.98;38.99;99158.13;5109514;28;8840;-73
2022/07/05 03:38:01;;;;;;;;;21.00;20.40;;;;;28.03;38.76;99161.25;5111993;28;8828;-73
2022/07/05 03:40:29;;;;;;;;;19.80;19.60;;;;;28.07;38.37;99160.06;5026425;28;8851;-75
2022/07/05 03:42:59;;;;;;;;;20.00;18.60;;;;;28.12;38.08;99157.84;5090197;28;8863;-73
2022/07/05 03:45:33;;;;;;;;;17.80;17.60;;;;;28.18;38.18;99169.91;5089759;28;8871;-73
2022/07/05 03:48:02;;;;;;;;;19.80;18.20;;;;;28.23;37.60;99162.38;5072158;28;8835;-72
2022/07/05 03:50:52;;;;;;;;;21.40;19.60;;;;;28.33;37.31;99162.47;5090127;28;8861;-73
2022/07/05 03:53:21;;;;;;;;;19.60;18.80;;;;;28.39;37.10;99159.28;5091486;28;8851;-73
2022/07/05 03:55:50;;;;;;;;;19.40;19.40;;;;;28.47;37.05;99156.84;5073016;28;8855;-74
2022/07/05 03:58:18;;;;;;;;;39.25;34.25;;;;;28.56;36.16;99160.63;5124018;27;8971;-75
2022/07/05 04:00:49;;;;;;;;;21.60;21.40;;;;;28.66;36.33;99158.03;5089720;28;8862;-73
2022/07/05 04:03:21;;;;;;;;;22.20;20.60;;;;;28.68;37.25;99161.50;5056690;28;8844;-72
2022/07/05 04:05:52;;;;;;;;;24.00;22.50;;;;;28.44;39.64;99167.81;5089504;28;8816;-72
2022/07/05 04:08:22;;;;;;;;;21.50;21.25;;;;;28.53;39.95;99167.13;5090918;28;8874;-72
2022/07/05 04:10:50;;;;;;;;;26.00;22.50;;;;;28.62;39.89;99167.34;5089199;28;8855;-73
2022/07/05 04:13:21;;;;;;;;;21.00;20.40;;;;;28.66;39.59;99160.72;5089538;28;8856;-73
2022/07/05 04:15:55;;;;;;;;;35.50;30.00;;;;;28.80;39.36;99160.47;5089505;28;8836;-75
2022/07/05 04:18:24;;;;;;;;;25.75;25.75;;;;;28.92;39.04;99164.84;5089480;28;8839;-73
2022/07/05 04:20:55;;;;;;;;;21.40;20.60;;;;;28.89;39.01;99161.53;5089450;28;8843;-72
2022/07/05 04:23:23;;;;;;;;;27.75;24.75;;;;;28.72;38.98;99162.94;5071854;28;9675;-73
2022/07/05 04:25:52;;;;;;;;;62.00;50.00;;;;;28.82;39.21;99155.81;5072437;28;8865;-73
2022/07/05 04:28:40;;;;;;;;;26.25;26.25;;;;;28.96;39.40;99158.22;5089266;28;9089;-72
2022/07/05 04:31:13;;;;;;;;;23.40;22.20;;;;;29.09;39.26;99155.38;5056092;28;8840;-73
2022/07/05 04:33:45;;;;;;;;;25.50;24.75;;;;;29.24;39.14;99161.28;5072210;28;9662;-72
2022/07/05 04:36:19;;;;;;;;;34.00;31.50;;;;;29.40;39.39;99146.59;5088869;28;8867;-74
2022/07/05 04:38:49;;;;;;;;;30.50;29.75;;;;;29.49;39.43;99149.34;5049068;28;8856;-74
2022/07/05 04:41:18;;;;;;;;;27.75;26.75;;;;;29.63;38.74;99156.19;5048425;28;8837;-71
2022/07/05 04:43:46;;;;;;;;;26.25;26.25;;;;;29.79;39.06;99155.75;5032034;28;8852;-71
2022/07/05 04:46:17;;;;;;;;;29.25;28.25;;;;;29.89;39.28;99148.59;5048293;28;8970;-73
2022/07/05 04:48:47;;;;;;;;;22.60;22.60;;;;;30.02;38.73;99152.88;5048528;28;8829;-75
2022/07/05 04:51:16;;;;;;;;;21.25;20.75;;;;;30.19;38.50;99151.38;5048128;28;9568;-72
2022/07/05 04:53:45;;;;;;;;;25.25;23.00;;;;;30.33;37.61;99150.22;5014417;28;8905;-75
2022/07/05 04:56:14;;;;;;;;;23.25;22.50;;;;;30.48;37.47;99149.69;5049006;28;8954;-72
2022/07/05 04:58:42;;;;;;;;;30.00;27.50;;;;;30.55;37.34;99160.75;5048945;28;8888;-72
2022/07/05 05:01:11;;;;;;;;;29.25;27.75;;;;;30.58;37.62;99157.78;5049516;28;9732;-74
2022/07/05 05:03:41;;;;;;;;;32.50;30.00;;;;;30.76;37.39;99154.44;5049532;28;8849;-73
2022/07/05 05:06:09;;;;;;;;;26.50;26.00;;;;;30.93;37.25;99153.75;5049233;28;8848;-73
2022/07/05 05:08:38;;;;;;;;;28.50;28.50;;;;;31.08;37.51;99160.44;5053204;28;8875;-73
2022/07/05 05:11:06;;;;;;;;;26.25;25.25;;;;;31.25;37.25;99160.72;5050093;28;8881;-73
2022/07/05 05:13:35;;;;;;;;;41.25;33.50;;;;;30.77;38.55;99167.72;5049733;28;8853;-73
2022/07/05 05:16:04;;;;;;;;;33.25;30.00;;;;;30.36;40.36;99164.25;5049429;28;8845;-73
2022/07/05 05:18:33;;;;;;;;;31.50;30.50;;;;;30.49;39.73;99162.16;5049154;28;8895;-72
2022/07/05 05:21:03;;;;;;;;;29.00;28.75;;;;;30.66;39.29;99162.47;5048956;28;8951;-73
2022/07/05 05:23:31;;;;;;;;;33.00;30.75;;;;;30.78;39.88;99160.53;5048857;28;8864;-73
2022/07/05 05:26:00;;;;;;;;;28.75;27.00;;;;;30.97;39.25;99152.47;5029909;28;8840;-73
2022/07/05 05:28:28;;;;;;;;;28.50;26.50;;;;;31.24;37.96;99148.22;5047731;28;8861;-75
2022/07/05 05:30:57;;;;;;;;;23.50;23.50;;;;;31.44;37.41;99147.22;5049187;28;8880;-74
2022/07/05 05:33:26;;;;;;;;;26.50;26.50;;;;;31.54;37.02;99149.06;5048988;28;8937;-72
2022/07/05 05:35:55;;;;;;;;;33.75;31.00;;;;;31.49;37.47;99152.19;5047452;28;9646;-73
2022/07/05 05:38:25;;;;;;;;;25.50;22.50;;;;;31.41;37.41;99158.25;5083229;28;8885;-73
2022/07/05 05:40:54;;;;;;;;;32.50;30.00;;;;;31.49;36.32;99160.28;5089220;28;8878;-73
2022/07/05 05:43:22;;;;;;;;;29.50;29.25;;;;;31.65;36.34;99162.38;5103301;28;9003;-73
2022/07/05 05:45:50;;;;;;;;;28.75;27.25;;;;;31.72;36.30;99159.94;5089517;28;8855;-76
2022/07/05 05:48:19;;;;;;;;;31.75;30.00;;;;;31.92;36.66;99169.69;5088944;28;8852;-75
2022/07/05 05:50:49;;;;;;;;;30.75;27.00;;;;;32.03;35.83;99160.59;5088801;28;8928;-74
2022/07/05 05:53:17;;;;;;;;;31.25;28.75;;;;;32.14;35.46;99171.22;5087794;28;8885;-76
2022/07/05 05:55:47;;;;;;;;;24.00;23.25;;;;;32.26;35.43;99161.06;5088910;28;8861;-73
2022/07/05 05:58:18;;;;;;;;;30.50;27.50;;;;;32.46;34.77;99164.53;5087654;28;8844;-74
2022/07/05 06:00:48;;;;;;;;;26.50;25.00;;;;;32.65;34.31;99158.19;5089079;28;8855;-73
2022/07/05 06:03:17;;;;;;;;;24.50;24.50;;;;;32.64;34.27;99162.72;5088428;28;8855;-72
2022/07/05 06:05:45;;;;;;;;;27.00;26.50;;;;;32.60;34.36;99164.03;5088531;28;8875;-74
2022/07/05 06:08:14;;;;;;;;;28.00;25.00;;;;;32.35;33.52;99160.16;5088810;28;9585;-74
2022/07/05 06:10:43;;;;;;;;;26.00;24.00;;;;;32.33;33.22;99158.63;5088244;28;9609;-73
2022/07/05 06:13:14;;;;;;;;;23.75;23.25;;;;;32.30;33.92;99153.53;5089020;28;9650;-73
2022/07/05 06:15:43;;;;;;;;;25.50;23.75;;;;;32.45;33.86;99150.16;5069410;28;8926;-73
2022/07/05 06:18:12;;;;;;;;;22.00;21.75;;;;;32.67;33.43;99145.38;5088659;28;8852;-75
2022/07/05 06:20:41;;;;;;;;;26.25;23.50;;;;;32.90;32.63;99147.63;5088613;28;8871;-73
2022/07/05 06:23:09;;;;;;;;;23.75;22.50;;;;;33.12;31.92;99140.94;5088429;28;8847;-73
2022/07/05 06:25:38;;;;;;;;;25.50;23.50;;;;;33.32;32.24;99139.75;5085669;28;8998;-74
2022/07/05 06:28:08;;;;;;;;;22.00;22.00;;;;;33.48;31.57;99140.88;5088279;28;8998;-72
2022/07/05 06:30:39;;;;;;;;;20.25;20.25;;;;;33.68;31.53;99141.56;5088023;28;8840;-73
2022/07/05 06:33:08;;;;;;;;;22.25;20.75;;;;;33.84;30.66;99143.50;5087463;28;8879;-74
2022/07/05 06:35:36;;;;;;;;;20.75;20.75;;;;;33.88;30.38;99147.59;5088343;28;8937;-73
2022/07/05 06:38:06;;;;;;;;;17.75;16.50;;;;;33.98;29.81;99141.06;5088748;28;8864;-73
2022/07/05 06:40:37;;;;;;;;;23.50;23.50;;;;;34.14;29.82;99147.53;5088322;28;8860;-74
2022/07/05 06:43:07;;;;;;;;;23.75;23.00;;;;;33.99;31.45;99147.34;5088529;28;8890;-72
2022/07/05 06:46:00;;;;;;;;;34.25;30.50;;;;;34.07;32.27;99154.66;5048775;28;8929;-73
2022/07/05 06:48:28;;;;;;;;;34.50;30.50;;;;;34.17;32.37;99147.25;5065775;28;8867;-71
2022/07/05 06:50:57;;;;;;;;;32.75;29.25;;;;;34.33;32.39;99138.34;5065676;28;8844;-72
2022/07/05 06:53:25;;;;;;;;;29.00;26.25;;;;;34.40;32.02;99144.81;5065744;28;8855;-71
2022/07/05 06:55:54;;;;;;;;;23.75;21.25;;;;;34.45;31.65;99144.34;5068470;28;8852;-72
2022/07/05 06:58:24;;;;;;;;;23.75;22.50;;;;;34.32;31.87;99134.81;5070222;28;9022;-73
2022/07/05 07:00:54;;;;;;;;;18.50;18.00;;;;;34.46;31.30;99135.19;5066175;28;8855;-73
2022/07/05 07:03:43;;;;;;;;;19.00;19.00;;;;;34.54;30.03;99138.78;5065463;28;8880;-75
2022/07/05 07:06:32;;;;;;;;;16.50;16.25;;;;;34.20;30.66;99135.25;5065675;28;8828;-73
2022/07/05 07:09:18;;;;;;;;;11.60;11.60;;;;;34.31;27.30;99140.38;5065529;28;8847;-76
2022/07/05 07:11:48;;;;;;;;;7.00;7.00;;;;;34.55;25.80;99135.03;5048851;28;8844;-75
2022/07/05 07:14:17;;;;;;;;;7.20;7.20;;;;;34.75;24.65;99135.63;5065238;28;9093;-74
2022/07/05 07:16:45;;;;;;;;;9.25;8.75;;;;;34.86;24.19;99145.31;5065721;28;8860;-75
2022/07/05 07:19:15;;;;;;;;;7.80;7.40;;;;;35.01;24.21;99136.50;5065507;28;8847;-74
2022/07/05 07:21:44;;;;;;;;;6.80;6.80;;;;;35.14;23.30;99136.84;5067840;28;8883;-74
2022/07/05 07:24:12;;;;;;;;;6.80;5.60;;;;;35.29;23.07;99137.06;5025406;28;8855;-74
2022/07/05 07:29:27;;;;;;;;;9.20;8.40;;;;;35.49;22.74;99137.56;5094857;28;8970;-74
2022/07/05 07:31:56;;;;;;;;;7.40;7.40;;;;;35.65;22.85;99129.41;5095993;28;8874;-72
2022/07/05 07:34:27;;;;;;;;;10.00;9.00;;;;;35.79;22.99;99129.75;5090494;28;8977;-75
2022/07/05 07:36:56;;;;;;;;;9.75;9.00;;;;;35.90;22.77;99132.06;5091878;28;8867;-74
2022/07/05 07:39:26;;;;;;;;;9.00;8.00;;;;;35.98;22.17;99132.03;5091706;28;8990;-73
2022/07/05 07:41:54;;;;;;;;;8.50;7.75;;;;;36.07;22.09;99122.84;5092054;28;8856;-74
2022/07/05 07:44:22;;;;;;;;;10.00;10.00;;;;;36.14;22.22;99125.69;5091550;28;8847;-74
2022/07/05 07:46:51;;;;;;;;;11.50;11.50;;;;;36.16;22.07;99125.53;5091702;28;8839;-73
2022/07/05 07:49:20;;;;;;;;;12.50;12.50;;;;;36.17;22.25;99127.22;5073363;28;8890;-73
2022/07/05 07:51:51;;;;;;;;;17.50;17.50;;;;;36.23;22.01;99130.09;5091109;28;8859;-74
2022/07/05 07:54:19;;;;;;;;;7.50;7.50;;;;;36.29;22.06;99132.09;5089863;28;8936;-74
2022/07/05 07:56:48;;;;;;;;;8.25;8.25;;;;;36.38;21.42;99126.66;5091093;28;8835;-72
2022/07/05 07:59:17;;;;;;;;;6.75;6.75;;;;;36.45;21.25;99131.19;5091086;28;8832;-78
2022/07/05 08:01:45;;;;;;;;;9.75;9.75;;;;;36.44;21.88;99137.63;5090951;28;8891;-74
2022/07/05 08:04:14;;;;;;;;;8.75;8.75;;;;;36.56;21.76;99139.94;5091027;28;8906;-74
2022/07/05 08:06:45;;;;;;;;;8.00;8.00;;;;;36.66;21.66;99136.03;5091236;28;8932;-75
2022/07/05 08:09:14;;;;;;;;;7.25;7.25;;;;;36.76;21.94;99137.66;5091359;28;8958;-71
2022/07/05 08:11:46;;;;;;;;;9.00;8.00;;;;;36.78;22.14;99139.16;5090430;28;8859;-75
2022/07/05 08:14:16;;;;;;;;;9.25;8.50;;;;;36.86;21.33;99141.84;5090906;28;8871;-74
2022/07/05 08:16:46;;;;;;;;;9.00;9.00;;;;;36.94;21.58;99142.78;5088090;28;8839;-76
2022/07/05 08:22:08;;;;;;;;;11.00;11.00;;;;;37.03;21.36;99133.56;5089153;28;8835;-75
2022/07/05 08:24:40;;;;;;;;;12.25;12.25;;;;;36.99;21.20;99137.66;5090695;28;8852;-75
2022/07/05 08:27:09;;;;;;;;;10.50;10.50;;;;;37.05;21.79;99132.38;5054735;28;9606;-75
2022/07/05 08:29:38;;;;;;;;;10.75;9.75;;;;;37.16;21.09;99132.97;5071118;28;8833;-74
2022/07/05 08:32:08;;;;;;;;;11.75;11.75;;;;;37.21;20.78;99134.13;5087528;28;8845;-72
2022/07/05 08:34:37;;;;;;;;;11.00;11.00;;;;;37.20;21.22;99131.56;5054503;28;8849;-73
2022/07/05 08:37:06;;;;;;;;;8.00;8.00;;;;;37.10;21.22;99133.69;5087761;28;9663;-74
2022/07/05 08:39:44;;;;;;;;;11.25;10.50;;;;;36.91;21.26;99126.88;5088915;28;8850;-77
2022/07/05 08:42:13;;;;;;;;;12.00;12.00;;;;;36.93;21.53;99133.78;5088327;28;8907;-75
2022/07/05 08:44:44;;;;;;;;;13.25;13.00;;;;;36.78;21.12;99132.88;5091645;28;8883;-71
2022/07/05 08:47:16;;;;;;;;;13.50;13.50;;;;;35.82;22.30;99129.38;5091590;28;8854;-71
2022/07/05 08:49:50;;;;;;;;;12.50;11.00;;;;;35.98;22.62;99125.78;5100951;28;8861;-70
2022/07/05 08:52:19;;;;;;;;;12.00;12.00;;;;;35.98;22.53;99121.19;5096552;28;8849;-73
2022/07/05 08:54:52;;;;;;;;;14.00;13.00;;;;;36.23;22.69;99115.69;5087730;28;9062;-73
2022/07/05 08:57:21;;;;;;;;;29.25;27.75;;;;;36.29;22.96;99123.13;5086089;28;8838;-72
2022/07/05 08:59:50;;;;;;;;;16.00;16.00;;;;;36.54;22.17;99114.84;5070114;28;8997;-72
2022/07/05 09:02:20;;;;;;;;;13.75;13.25;;;;;36.51;21.71;99115.22;5069824;28;8862;-75
2022/07/05 09:04:50;;;;;;;;;10.00;10.00;;;;;36.72;21.22;99109.16;5069906;28;8874;-72
2022/07/05 09:07:22;;;;;;;;;15.25;14.25;;;;;36.87;21.09;99110.06;5102223;28;8857;-73
2022/07/05 09:09:53;;;;;;;;;12.00;12.00;;;;;37.03;21.02;99118.09;5070018;28;9004;-73
2022/07/05 09:12:21;;;;;;;;;12.25;11.25;;;;;37.13;20.50;99115.13;5068134;28;8846;-72
2022/07/05 09:14:56;;;;;;;;;16.50;15.75;;;;;37.28;20.93;99111.63;5068090;28;8889;-72
2022/07/05 09:17:27;;;;;;;;;12.75;12.50;;;;;37.24;21.01;99112.00;5069129;28;8980;-71
2022/07/05 09:20:07;;;;;;;;;22.50;20.25;;;;;37.35;21.11;99098.97;5069287;28;9603;-72
2022/07/05 09:22:46;;;;;;;;;13.50;13.50;;;;;36.85;21.02;99101.25;5069154;28;8842;-71
2022/07/05 09:25:22;;;;;;;;;14.25;14.25;;;;;37.11;21.22;99100.00;5068890;28;8862;-72
2022/07/05 09:27:56;;;;;;;;;16.75;16.25;;;;;37.14;21.26;99092.38;5068096;28;8842;-72
2022/07/05 09:30:34;;;;;;;;;14.00;14.00;;;;;37.29;20.73;99092.41;5069105;28;8854;-72
2022/07/05 09:33:09;;;;;;;;;17.25;16.50;;;;;37.41;20.78;99084.63;5050296;28;8874;-74
2022/07/05 09:35:40;;;;;;;;;18.00;17.25;;;;;37.50;20.99;99069.06;5068817;28;8842;-72
2022/07/05 09:38:18;;;;;;;;;14.50;14.50;;;;;37.56;20.99;99069.16;5083506;28;8867;-71
2022/07/05 09:40:51;;;;;;;;;16.25;15.25;;;;;37.57;21.41;99068.13;5069863;28;8894;-72
2022/07/05 09:43:22;;;;;;;;;14.25;12.25;;;;;37.63;20.93;99074.75;5089238;28;8867;-72
2022/07/05 09:45:52;;;;;;;;;16.75;15.00;;;;;37.72;20.40;99078.22;5086496;28;8940;-73
2022/07/05 09:48:21;;;;;;;;;17.75;16.75;;;;;37.76;20.16;99074.09;5088640;28;8843;-72
2022/07/05 09:51:10;;;;;;;;;12.25;12.00;;;;;37.48;19.91;99066.53;5088855;28;8836;-72
2022/07/05 09:54:00;;;;;;;;;15.00;15.00;;;;;37.50;19.82;99069.06;5088673;28;8851;-72
2022/07/05 09:56:46;;;;;;;;;15.00;15.00;;;;;37.48;19.17;99068.41;5087400;28;8885;-72
2022/07/05 09:59:18;;;;;;;;;17.00;17.00;;;;;37.48;19.55;99065.69;5088512;28;9654;-73
2022/07/05 10:01:47;;;;;;;;;13.00;12.75;;;;;37.09;20.01;99073.03;5089109;28;8844;-71
2022/07/05 10:04:16;;;;;;;;;12.00;12.00;;;;;37.36;20.10;99066.16;5088830;28;8848;-72
2022/07/05 10:06:45;;;;;;;;;14.25;13.75;;;;;37.41;19.66;99071.03;5088981;28;9621;-75
2022/07/05 10:09:15;;;;;;;;;16.25;15.50;;;;;37.52;20.61;99064.28;5088668;28;8918;-73
2022/07/05 10:11:46;;;;;;;;;15.25;14.00;;;;;37.62;20.38;99071.19;5088591;28;8864;-72
2022/07/05 10:14:23;;;;;;;;;15.00;15.00;;;;;37.68;19.86;99069.59;5087157;28;8861;-72
2022/07/05 10:17:00;;;;;;;;;11.00;10.50;;;;;37.77;19.71;99071.19;5088199;28;8840;-73
2022/07/05 10:19:35;;;;;;;;;13.25;13.25;;;;;37.80;20.12;99065.34;5088231;28;8832;-72
2022/07/05 10:22:06;;;;;;;;;12.50;11.75;;;;;37.69;19.61;99060.38;5088439;28;8859;-74
2022/07/05 10:24:46;;;;;;;;;15.00;15.00;;;;;37.71;20.00;99063.75;5086658;28;8847;-71
2022/07/05 10:27:19;;;;;;;;;16.75;15.75;;;;;37.83;20.38;99055.97;5088365;28;8851;-71
2022/07/05 10:29:50;;;;;;;;;18.00;18.00;;;;;38.03;19.91;99059.78;5088134;28;8824;-71
2022/07/05 10:32:20;;;;;;;;;15.75;15.75;;;;;38.27;19.44;99063.25;5088291;28;8851;-73
2022/07/05 10:34:51;;;;;;;;;15.75;15.75;;;;;38.52;19.72;99054.72;5090585;28;9017;-72
2022/07/05 10:37:34;;;;;;;;;17.25;17.25;;;;;38.55;19.79;99051.63;5088860;28;8840;-72
2022/07/05 10:40:05;;;;;;;;;16.75;16.75;;;;;38.58;19.40;99054.81;5087217;28;8866;-72
2022/07/05 10:42:39;;;;;;;;;13.50;13.00;;;;;37.91;19.93;99055.03;5088304;28;8852;-73
2022/07/05 10:45:27;;;;;;;;;18.25;17.25;;;;;38.05;21.20;99048.69;5088574;28;8858;-74
2022/07/05 10:48:24;;;;;;;;;19.50;18.25;;;;;37.12;22.65;99047.34;5088601;28;8982;-75
2022/07/05 10:50:54;;;;;;;;;16.75;16.75;;;;;36.90;23.09;99041.72;5088362;28;9557;-72
2022/07/05 10:53:25;;;;;;;;;19.00;18.25;;;;;36.91;22.82;99035.28;5088515;28;8836;-72
2022/07/05 10:55:56;;;;;;;;;21.75;21.75;;;;;36.99;22.76;99043.34;5086801;28;8840;-71
2022/07/05 10:58:28;;;;;;;;;19.75;19.75;;;;;36.72;23.33;99041.22;5073187;28;8843;-74
2022/07/05 11:01:34;;;;;;;;;19.50;19.50;;;;;36.25;24.40;99040.31;5091978;28;8859;-75
2022/07/05 11:04:29;;;;;;;;;18.00;18.00;;;;;36.07;24.68;99038.69;5092121;28;8840;-73
2022/07/05 11:06:59;;;;;;;;;18.75;18.75;;;;;35.80;25.60;99033.72;5032269;28;8850;-73
2022/07/05 11:09:28;;;;;;;;;21.50;21.25;;;;;36.06;24.83;99023.41;5049226;28;8881;-71
2022/07/05 11:12:08;;;;;;;;;20.25;20.25;;;;;36.00;24.38;99026.00;5049384;28;8908;-76
2022/07/05 11:15:07;;;;;;;;;20.25;20.25;;;;;36.55;24.08;99025.00;5033109;28;8845;-75
2022/07/05 11:17:36;;;;;;;;;24.00;23.75;;;;;36.67;24.00;99029.03;5049693;28;8962;-77
2022/07/05 11:20:30;;;;;;;;;21.25;21.25;;;;;36.27;24.79;99017.38;5049204;28;8846;-74
2022/07/05 11:23:10;;;;;;;;;20.00;20.00;;;;;36.26;25.36;99018.44;5054898;28;9004;-71
2022/07/05 11:25:42;;;;;;;;;25.50;23.25;;;;;35.98;25.87;99012.63;5051017;28;9588;-75
2022/07/05 11:28:17;;;;;;;;;26.50;24.75;;;;;35.97;25.61;99007.34;5034935;28;8862;-74
2022/07/05 11:30:52;;;;;;;;;23.50;22.00;;;;;36.65;23.88;99017.47;5048541;28;8838;-72
2022/07/05 11:33:38;;;;;;;;;21.25;21.25;;;;;37.23;23.95;99009.69;5048936;28;8834;-75
2022/07/05 11:36:21;;;;;;;;;21.75;21.25;;;;;37.83;23.36;99012.44;5048864;28;9004;-75
2022/07/05 11:39:09;;;;;;;;;23.50;22.75;;;;;38.38;22.50;99004.69;5048718;28;8880;-72
2022/07/05 11:41:47;;;;;;;;;26.25;25.00;;;;;38.92;22.63;98997.84;5048609;28;8842;-73
2022/07/05 11:44:16;;;;;;;;;28.50;26.50;;;;;38.27;22.65;98999.75;5069398;28;8883;-73
2022/07/05 11:46:47;;;;;;;;;26.00;26.00;;;;;37.44;23.49;98991.78;5092092;28;8886;-78
2022/07/05 11:49:21;;;;;;;;;25.75;25.25;;;;;37.12;23.75;98984.78;5089193;28;8836;-75
2022/07/05 11:51:58;;;;;;;;;27.75;25.50;;;;;37.50;24.10;98980.13;5091278;28;8937;-74
2022/07/05 11:54:28;;;;;;;;;28.00;27.00;;;;;37.34;23.74;98996.66;5091183;28;8859;-74